9°C Temp
2°C Dewpoint
62% Humidity
Temperature
8 KM/H
5 MPH
4 KTS
270°
Due West

Wind Speed
Parcialmente Nublado
Pressure 1025.92 (hPa) - 30.3 (in)
Visibility 6.2 (mi) - 10.0 (km)

Current Conditions
LEAL
Location Alicante International 70(km)
Metar :LEAL 170800Z 27004KT 250V320 9999 FEW033 09/02 Q1026 NOSIG
Thu 1st January 02:00 am

Airport
  Metar Aviation API Data Provided by https://www.checkwx.com/ PHP scripts by weather34.com ©2019